Terminal Aerodrome Forecast
Issued by NWS Albany, NY

Home | Current Version | Previous Version | Text Only | Print | Product List | Glossary On
Versions: 1 2 3 4 5 6 7 8 9 10 11 12 13 14 15 16 17 18 19 20 21 22 23 24 25 26 27 28 29 30 31 32
450
FTUS41 KALY 220135 AAB
TAFGFL
TAF AMD
KGFL 220135Z 2202/2224 00000KT 1/2SM FG VV002
      TEMPO 2202/2206 2SM BR OVC005
     FM220600 00000KT 3/4SM BR OVC005
     FM221500 VRB03KT 3SM BR SCT005 OVC012=

USA.gov is the U.S. government's official web portal to all federal, state and local government web resources and services.